Time;durP1;ratioP1;P1;durP2;ratioP2;P2;SDS_P1;SDS_P2;PMS_P1;PMS_P2;Temp;Humidity;BMP_temperature;BMP_pressure;BME280_temperature;BME280_humidity;BME280_pressure;Samples;Min_cycle;Max_cycle;Signal;HPM_P1;HPM_P2
2021/12/16 00:01:48;;;;;;;7.17;4.83;;;;;;;7.85;89.25;101943.69;1721907;83;21017;-72
2021/12/16 00:10:30;;;;;;;;;;;;;;;7.85;88.85;101933.69;1727541;83;21027;-73
2021/12/16 00:29:21;;;;;;;6.23;4.37;;;;;;;7.72;89.02;101932.82;1722111;83;21092;-73
2021/12/16 00:31:48;;;;;;;8.43;4.37;;;;;;;7.72;89.06;101931.08;1718198;83;21035;-73
2021/12/16 00:34:04;;;;;;;6.63;4.43;;;;;;;7.75;89.08;101921.93;1749185;81;21542;-74
2021/12/16 00:36:36;;;;;;;5.83;4.40;;;;;;;7.76;89.08;101917.16;1721615;83;21059;-74
2021/12/16 00:39:13;;;;;;;7.33;5.23;;;;;;;7.75;89.17;101924.55;1721653;83;21537;-73
2021/12/16 00:41:44;;;;;;;6.53;5.30;;;;;;;7.72;89.22;101918.02;1725473;83;21004;-74
2021/12/16 00:54:48;;;;;;;6.47;4.50;;;;;;;7.76;89.04;101920.19;1721746;83;21002;-73
2021/12/16 00:57:15;;;;;;;7.17;4.97;;;;;;;7.77;89.02;101920.20;1724705;83;21062;-73
2021/12/16 00:59:47;;;;;;;8.70;5.23;;;;;;;7.75;89.10;101918.46;1721668;83;21138;-75
2021/12/16 01:02:33;;;;;;;;;;;;;;;7.72;89.13;101918.02;1727420;83;20947;-73
2021/12/16 01:05:12;;;;;;;7.87;5.67;;;;;;;7.71;89.20;101923.27;1723330;83;20176;-74
2021/12/16 01:33:33;;;;;;;;;;;;;;;7.68;89.09;101923.27;1724280;83;21669;-73
2021/12/16 01:51:35;;;;;;;8.40;5.40;;;;;;;7.67;89.08;101913.23;1742346;82;21076;-73
2021/12/16 01:56:51;;;;;;;7.10;4.45;;;;;;;7.67;88.84;101922.81;1742353;82;21474;-73
2021/12/16 01:59:17;;;;;;;8.00;4.50;;;;;;;7.69;88.72;101919.34;1758008;81;21023;-75
2021/12/16 02:01:40;;;;;;;6.30;4.60;;;;;;;7.69;88.64;101918.03;1740197;82;20983;-73
2021/12/16 02:04:19;;;;;;;6.73;4.40;;;;;;;7.70;88.63;101938.02;1718898;82;21001;-74
2021/12/16 02:09:40;;;;;;;8.73;5.80;;;;;;;7.69;88.89;101919.78;1742098;82;21005;-73
2021/12/16 02:12:10;;;;;;;7.83;5.53;;;;;;;7.66;88.89;101921.95;1755115;81;20969;-73
2021/12/16 02:31:44;;;;;;;9.93;6.33;;;;;;;7.68;88.84;101921.97;1772911;81;21088;-73
2021/12/16 02:36:46;;;;;;;10.37;6.03;;;;;;;7.71;88.68;101918.91;1772765;81;21029;-73
2021/12/16 02:39:21;;;;;;;13.13;6.80;;;;;;;7.73;88.59;101918.89;1773107;80;21504;-73
2021/12/16 02:41:57;;;;;;;9.17;6.73;;;;;;;7.72;88.68;101923.69;1772733;80;20970;-73
2021/12/16 02:49:44;;;;;;;10.30;6.90;;;;;;;7.66;88.67;101914.13;1772457;80;20966;-73
2021/12/16 02:52:13;;;;;;;9.70;7.00;;;;;;;7.68;88.57;101928.05;1772455;81;21005;-72
2021/12/16 02:54:40;;;;;;;9.73;6.07;;;;;;;7.68;88.55;101923.27;1772601;80;20997;-73
2021/12/16 02:57:08;;;;;;;10.07;6.80;;;;;;;7.70;88.54;101926.28;1772158;81;21020;-74
2021/12/16 02:59:36;;;;;;;11.47;7.43;;;;;;;7.68;88.65;101911.52;1733653;81;21078;-73
2021/12/16 03:02:10;;;;;;;10.30;8.13;;;;;;;7.67;88.68;101922.81;1728863;83;21019;-73
2021/12/16 03:04:41;;;;;;;11.93;7.50;;;;;;;7.62;88.59;101925.45;1760097;81;21011;-73
2021/12/16 03:07:12;;;;;;;12.95;7.83;;;;;;;7.62;88.54;101937.19;1759210;81;22076;-73
2021/12/16 03:14:49;;;;;;;11.97;8.23;;;;;;;7.62;88.35;101941.52;1759333;81;21533;-73
2021/12/16 03:17:22;;;;;;;15.78;8.35;;;;;;;7.59;88.43;101936.75;1758441;81;21063;-73
2021/12/16 03:20:03;;;;;;;15.37;9.23;;;;;;;7.57;88.51;101935.88;1757815;81;20947;-74
2021/12/16 03:25:14;;;;;;;11.90;8.37;;;;;;;7.52;88.28;101931.53;1700792;81;21125;-73
2021/12/16 03:35:52;;;;;;;12.97;8.97;;;;;;;7.52;88.35;101939.36;1759240;81;20988;-73
2021/12/16 03:38:10;;;;;;;14.27;9.67;;;;;;;7.49;88.43;101941.97;1756204;81;21045;-73
2021/12/16 03:40:39;;;;;;;15.93;9.77;;;;;;;7.49;88.54;101947.19;1759098;81;20984;-77
2021/12/16 03:43:18;;;;;;;14.83;8.50;;;;;;;7.47;88.47;101942.39;1759367;81;21024;-73
2021/12/16 03:48:47;;;;;;;15.80;9.80;;;;;;;7.53;88.26;101945.86;1759232;81;21000;-77
2021/12/16 03:51:29;;;;;;;11.80;8.13;;;;;;;7.54;88.19;101940.23;1759251;81;21146;-74
2021/12/16 03:54:02;;;;;;;13.67;9.10;;;;;;;7.53;88.17;101939.34;1759042;81;21024;-73
2021/12/16 03:56:32;;;;;;;15.67;9.20;;;;;;;7.50;88.29;101940.64;1759016;81;21028;-73
2021/12/16 03:59:01;;;;;;;14.70;10.20;;;;;;;7.48;88.39;101941.10;1757328;81;21500;-75
2021/12/16 04:01:31;;;;;;;17.63;10.30;;;;;;;7.49;88.47;101948.05;1758500;81;21023;-73
2021/12/16 04:04:01;;;;;;;16.15;9.53;;;;;;;7.47;88.47;101941.09;1759630;81;21110;-78
2021/12/16 04:06:32;;;;;;;14.47;9.07;;;;;;;7.49;88.44;101938.91;1759067;81;20913;-76
2021/12/16 04:09:01;;;;;;;13.17;9.17;;;;;;;7.53;88.31;101943.69;1759384;81;21079;-78
2021/12/16 04:11:39;;;;;;;17.80;9.73;;;;;;;7.53;88.31;101941.08;1759173;81;21051;-74
2021/12/16 04:14:09;;;;;;;15.53;9.87;;;;;;;7.51;88.18;101942.81;1758544;81;21012;-73
2021/12/16 04:16:45;;;;;;;15.83;9.63;;;;;;;7.45;88.35;101944.12;1759507;81;22409;-74
2021/12/16 04:19:18;;;;;;;18.30;10.67;;;;;;;7.40;88.54;101941.53;1759032;81;21016;-73
2021/12/16 04:22:03;;;;;;;18.10;11.20;;;;;;;7.38;88.62;101946.73;1759435;81;21468;-77
2021/12/16 04:24:31;;;;;;;18.07;10.40;;;;;;;7.37;88.63;101948.92;1759300;81;21028;-77
2021/12/16 04:27:00;;;;;;;18.13;10.17;;;;;;;7.35;88.52;101945.87;1759155;81;21604;-73
2021/12/16 04:29:27;;;;;;;15.20;9.47;;;;;;;7.34;88.60;101950.22;1759461;81;21104;-73
2021/12/16 04:31:56;;;;;;;18.00;9.93;;;;;;;7.33;88.69;101946.30;1758981;81;21030;-78
2021/12/16 04:34:25;;;;;;;17.07;11.40;;;;;;;7.34;88.79;101949.33;1759557;81;21048;-79
2021/12/16 04:36:54;;;;;;;18.40;11.73;;;;;;;7.32;89.01;101949.78;1759201;81;20973;-73
2021/12/16 04:39:25;;;;;;;20.60;12.33;;;;;;;7.28;89.00;101947.58;1759243;81;21521;-73
2021/12/16 04:41:55;;;;;;;18.73;12.23;;;;;;;7.23;89.12;101948.00;1759156;81;21920;-73
2021/12/16 04:44:26;;;;;;;20.45;11.43;;;;;;;7.24;89.11;101944.98;1759496;81;21525;-73
2021/12/16 04:46:54;;;;;;;16.82;10.85;;;;;;;7.23;89.09;101938.87;1759251;81;21083;-73
2021/12/16 04:49:23;;;;;;;16.37;9.87;;;;;;;7.24;89.21;101939.77;1751902;81;20924;-73
2021/12/16 04:51:56;;;;;;;15.70;10.00;;;;;;;7.24;89.20;101944.98;1699104;84;20985;-73
2021/12/16 04:54:27;;;;;;;13.90;9.17;;;;;;;7.24;89.35;101939.33;1745894;82;21307;-74
2021/12/16 04:56:56;;;;;;;15.47;10.47;;;;;;;7.27;89.49;101938.03;1698729;84;21005;-74
2021/12/16 04:59:25;;;;;;;15.33;10.10;;;;;;;7.28;89.55;101936.28;1745656;82;21021;-74
2021/12/16 05:02:04;;;;;;;14.50;10.20;;;;;;;7.27;89.69;101931.51;1698707;84;21080;-75
2021/12/16 05:04:38;;;;;;;19.27;10.70;;;;;;;7.24;89.77;101922.38;1717750;83;21365;-74
2021/12/16 05:07:06;;;;;;;14.27;10.03;;;;;;;7.27;89.74;101930.20;1745904;82;21718;-74
2021/12/16 05:12:14;;;;;;;15.97;9.70;;;;;;;7.31;89.58;101924.55;1745709;82;21005;-74
2021/12/16 05:14:43;;;;;;;14.10;8.60;;;;;;;7.32;89.59;101932.39;1698783;84;21061;-77
2021/12/16 05:17:37;;;;;;;17.83;10.83;;;;;;;7.34;89.71;101939.79;1727898;83;21505;-76
2021/12/16 05:19:44;;;;;;;14.90;10.33;;;;;;;7.34;89.76;101935.88;1716128;83;21522;-74
2021/12/16 05:24:55;;;;;;;16.47;10.40;;;;;;;7.31;89.86;101935.84;1727849;83;21032;-73
2021/12/16 05:27:22;;;;;;;15.67;10.57;;;;;;;7.33;89.84;101933.25;1727918;83;21044;-73
2021/12/16 05:29:49;;;;;;;20.60;12.13;;;;;;;7.36;89.76;101938.47;1728335;83;21402;-76
2021/12/16 05:32:16;;;;;;;15.00;9.63;;;;;;;7.36;89.69;101938.03;1727799;83;21191;-74
2021/12/16 05:34:43;;;;;;;15.83;10.00;;;;;;;7.36;89.65;101938.03;1728159;83;21041;-74
2021/12/16 05:37:12;;;;;;;18.27;10.53;;;;;;;7.35;89.62;101937.60;1727826;83;21005;-77
2021/12/16 05:39:40;;;;;;;18.70;12.00;;;;;;;7.34;89.80;101933.27;1728047;83;21072;-74
2021/12/16 05:42:18;;;;;;;16.97;11.73;;;;;;;7.33;90.00;101933.25;1726292;83;20997;-74
2021/12/16 05:44:46;;;;;;;27.27;15.80;;;;;;;7.32;89.99;101928.91;1728152;83;21067;-74
2021/12/16 05:47:13;;;;;;;24.13;15.20;;;;;;;7.32;89.82;101936.30;1727797;83;21017;-74
2021/12/16 05:49:40;;;;;;;20.50;12.40;;;;;;;7.33;89.68;101931.95;1751579;80;20998;-73
2021/12/16 05:52:09;;;;;;;25.23;13.07;;;;;;;7.31;89.72;101942.36;1772883;81;21032;-74
2021/12/16 05:54:37;;;;;;;17.93;12.40;;;;;;;7.31;89.72;101942.36;1772851;81;21036;-79
2021/12/16 05:57:08;;;;;;;19.17;12.63;;;;;;;7.32;89.75;101950.65;1771274;80;21117;-74
2021/12/16 05:59:36;;;;;;;18.20;12.23;;;;;;;7.28;89.85;101959.31;1773123;81;20977;-74
2021/12/16 06:02:03;;;;;;;20.23;13.37;;;;;;;7.26;90.15;101954.56;1772969;80;21012;-74
2021/12/16 06:04:33;;;;;;;22.43;12.90;;;;;;;7.22;90.10;101951.48;1773279;80;21028;-77
2021/12/16 06:07:02;;;;;;;21.55;13.90;;;;;;;7.23;90.08;101952.35;1772191;80;21059;-74
2021/12/16 06:09:31;;;;;;;20.33;13.40;;;;;;;7.23;89.94;101957.57;1773121;81;21850;-74
2021/12/16 06:11:57;;;;;;;23.30;13.83;;;;;;;7.20;89.97;101951.05;1772768;80;21048;-74
2021/12/16 06:14:40;;;;;;;20.57;13.27;;;;;;;7.20;90.19;101949.30;1773158;81;21024;-74
2021/12/16 06:28:07;;;;;;;21.30;13.33;;;;;;;7.03;90.59;101951.87;1772943;81;21040;-73
2021/12/16 06:30:43;;;;;;;19.73;13.75;;;;;;;7.03;90.67;101946.66;1773420;80;21426;-82
2021/12/16 06:33:15;;;;;;;16.70;11.87;;;;;;;7.02;90.64;101948.84;1773146;81;21017;-72
2021/12/16 06:35:44;;;;;;;18.93;12.37;;;;;;;7.00;90.70;101949.70;1773251;80;21086;-83
2021/12/16 06:38:11;;;;;;;20.83;11.90;;;;;;;6.98;90.68;101954.91;1772673;80;20937;-73
2021/12/16 06:40:43;;;;;;;20.27;11.90;;;;;;;6.97;90.79;101956.22;1771656;80;21491;-74
2021/12/16 06:43:20;;;;;;;23.23;14.17;;;;;;;6.96;90.96;101959.27;1742427;80;21478;-73
2021/12/16 06:45:50;;;;;;;20.13;13.03;;;;;;;6.93;90.91;101959.27;1773050;80;21008;-73
2021/12/16 06:48:21;;;;;;;27.47;16.60;;;;;;;6.91;91.31;101962.29;1773037;80;21265;-74
2021/12/16 06:50:52;;;;;;;27.33;18.27;;;;;;;6.89;91.37;101963.57;1771803;80;20993;-73
2021/12/16 06:53:23;;;;;;;32.63;19.73;;;;;;;6.93;91.41;101961.43;1741087;82;21045;-74
2021/12/16 06:56:04;;;;;;;23.00;14.53;;;;;;;6.95;91.26;101970.98;1759235;81;21479;-73
2021/12/16 06:58:34;;;;;;;20.57;12.93;;;;;;;6.93;91.11;101966.64;1735811;82;20982;-73
2021/12/16 07:01:10;;;;;;;22.27;13.90;;;;;;;6.91;91.30;101963.16;1758333;81;21540;-81
2021/12/16 07:03:44;;;;;;;27.63;16.83;;;;;;;6.92;91.37;101967.92;1740007;82;21534;-73
2021/12/16 07:06:00;;;;;;;50.03;24.53;;;;;;;6.91;91.38;101976.63;1757147;81;21427;-83
2021/12/16 07:08:27;;;;;;;29.17;15.87;;;;;;;6.90;91.45;101978.37;1741855;82;21068;-84
2021/12/16 07:10:57;;;;;;;33.60;16.03;;;;;;;6.90;91.40;101980.97;1772364;81;21059;-78
2021/12/16 07:13:37;;;;;;;29.80;17.20;;;;;;;6.89;91.58;101980.52;1741817;82;21123;-78
2021/12/16 07:16:00;;;;;;;23.13;13.10;;;;;;;6.90;91.57;101983.58;1759282;81;21027;-94
2021/12/16 07:18:27;;;;;;;18.63;12.40;;;;;;;6.87;91.56;101982.27;1740064;82;21028;-79
2021/12/16 07:20:54;;;;;;;17.37;10.90;;;;;;;6.84;91.80;101987.88;1759274;81;21504;-78
2021/12/16 07:23:21;;;;;;;17.97;11.17;;;;;;;6.84;91.75;101987.44;1748889;82;21072;-74
2021/12/16 07:25:49;;;;;;;16.77;10.97;;;;;;;6.85;91.83;101982.69;1754770;81;21126;-78
2021/12/16 07:28:16;;;;;;;15.00;10.40;;;;;;;6.88;91.80;101986.61;1736196;81;20989;-80
2021/12/16 07:30:45;;;;;;;14.47;10.53;;;;;;;6.89;91.88;101983.13;1733097;81;21032;-78
2021/12/16 07:33:13;;;;;;;15.13;9.93;;;;;;;6.91;91.84;101982.70;1745841;82;21612;-78
2021/12/16 07:35:41;;;;;;;12.33;9.17;;;;;;;6.92;91.79;101993.99;1748024;81;21008;-77
2021/12/16 07:38:09;;;;;;;14.23;9.47;;;;;;;6.91;91.95;101993.56;1751105;81;21137;-76
2021/12/16 07:40:38;;;;;;;15.10;9.20;;;;;;;6.94;91.96;101993.58;1732476;81;21004;-78
2021/12/16 07:45:45;;;;;;;13.90;9.43;;;;;;;6.92;91.97;101993.55;1751672;82;21004;-80
2021/12/16 07:48:16;;;;;;;15.43;9.90;;;;;;;6.89;92.18;101987.47;1758366;80;21020;-78
2021/12/16 07:50:45;;;;;;;;;;;;;;;6.90;92.06;101982.28;1777386;80;21121;-82
2021/12/16 07:53:12;;;;;;;12.13;8.50;;;;;;;6.91;92.09;101976.19;1779836;80;20160;-84
2021/12/16 07:55:41;;;;;;;13.60;8.03;;;;;;;6.90;92.10;101983.58;1741437;81;21055;-79
2021/12/16 07:58:10;;;;;;;12.03;8.07;;;;;;;6.91;92.12;101972.72;1734540;82;21030;-78
2021/12/16 08:00:38;;;;;;;10.43;7.20;;;;;;;6.91;92.21;101980.53;1750261;81;21059;-80
2021/12/16 08:03:13;;;;;;;11.60;7.40;;;;;;;6.92;92.31;101992.25;1748550;81;21957;-77
2021/12/16 08:05:47;;;;;;;11.50;7.87;;;;;;;6.95;92.42;101999.66;1754661;81;20959;-80
2021/12/16 08:08:15;;;;;;;11.13;7.27;;;;;;;6.92;92.50;101994.86;1777694;80;21052;-80
2021/12/16 08:10:43;;;;;;;10.47;7.07;;;;;;;6.93;92.63;101993.15;1769437;80;21047;-78
2021/12/16 08:13:10;;;;;;;10.83;7.50;;;;;;;6.97;92.75;102003.14;1749473;81;21339;-77
2021/12/16 08:15:37;;;;;;;12.17;7.67;;;;;;;6.98;92.58;102017.91;1741532;81;21083;-78
2021/12/16 08:18:05;;;;;;;11.03;7.97;;;;;;;6.99;92.59;102017.06;1744250;81;21048;-77
2021/12/16 08:20:32;;;;;;;11.30;7.87;;;;;;;6.98;92.57;102018.77;1781741;80;21003;-77
2021/12/16 08:23:00;;;;;;;11.90;7.20;;;;;;;6.99;92.72;102024.45;1775868;80;21019;-76
2021/12/16 08:25:30;;;;;;;10.50;6.93;;;;;;;7.00;92.61;102025.31;1775571;80;21032;-76
2021/12/16 08:28:03;;;;;;;13.83;7.17;;;;;;;7.01;92.69;102031.84;1741789;82;21126;-76
2021/12/16 08:30:35;;;;;;;10.20;7.37;;;;;;;7.02;92.74;102027.50;1749030;81;21023;-77
2021/12/16 08:33:07;;;;;;;10.50;6.70;;;;;;;7.03;92.78;102035.75;1754783;81;21044;-76
2021/12/16 08:35:35;;;;;;;8.60;6.17;;;;;;;7.05;92.74;102040.55;1780135;80;21470;-77
2021/12/16 08:38:02;;;;;;;;;;;;;;;7.08;92.85;102041.41;1751010;81;21074;-77
2021/12/16 08:40:29;;;;;;;8.43;5.43;;;;;;;7.09;92.84;102042.28;1749054;81;21209;-82
2021/12/16 08:42:57;;;;;;;8.23;5.67;;;;;;;7.12;92.96;102042.29;1782753;80;21565;-77
2021/12/16 08:45:29;;;;;;;7.27;5.60;;;;;;;7.13;92.93;102041.45;1782563;80;21036;-81
2021/12/16 08:47:58;;;;;;;7.77;5.83;;;;;;;7.15;92.90;102044.94;1727670;81;20985;-84
2021/12/16 08:50:29;;;;;;;8.50;5.70;;;;;;;7.16;92.97;102038.84;1782581;80;21260;-81
2021/12/16 08:52:58;;;;;;;7.53;5.43;;;;;;;7.20;92.80;102050.14;1782660;80;21130;-76
2021/12/16 08:55:29;;;;;;;13.90;8.77;;;;;;;7.15;92.88;102048.41;1771776;80;21060;-80
2021/12/16 08:57:56;;;;;;;9.25;6.35;;;;;;;7.15;93.09;102048.41;1752411;81;21730;-78
2021/12/16 09:00:28;;;;;;;8.27;5.80;;;;;;;7.20;93.12;102045.80;1753622;81;21035;-80
2021/12/16 09:02:56;;;;;;;7.40;5.50;;;;;;;7.25;93.12;102047.98;1733471;81;21560;-78
2021/12/16 09:05:24;;;;;;;8.43;5.57;;;;;;;7.29;92.95;102042.38;1725274;83;21094;-84
2021/12/16 09:07:51;;;;;;;9.10;6.30;;;;;;;7.31;93.00;102041.92;1751667;82;21021;-78
2021/12/16 09:10:25;;;;;;;7.47;5.47;;;;;;;7.34;92.87;102045.84;1751861;81;21037;-78
2021/12/16 09:13:03;;;;;;;8.17;5.47;;;;;;;7.37;92.83;102057.58;1751612;82;21110;-78
2021/12/16 09:15:35;;;;;;;8.77;6.07;;;;;;;7.42;92.96;102062.82;1751913;81;21004;-78
2021/12/16 09:18:05;;;;;;;9.67;6.67;;;;;;;7.43;92.85;102065.86;1750509;82;21127;-75
2021/12/16 09:20:33;;;;;;;9.93;6.53;;;;;;;7.45;92.82;102071.52;1725471;83;20981;-84
2021/12/16 09:23:01;;;;;;;9.93;6.33;;;;;;;7.43;92.81;102065.86;1751622;82;20977;-80
2021/12/16 09:25:28;;;;;;;10.27;6.53;;;;;;;7.43;92.80;102071.07;1725256;83;21036;-78
2021/12/16 09:27:55;;;;;;;9.57;6.77;;;;;;;7.40;92.67;102073.67;1751589;82;21087;-78
2021/12/16 09:30:26;;;;;;;9.63;6.80;;;;;;;7.40;92.81;102070.66;1718402;82;21127;-81
2021/12/16 09:33:01;;;;;;;10.83;7.10;;;;;;;7.38;92.68;102075.00;1782503;80;21013;-84
2021/12/16 09:35:27;;;;;;;10.73;7.67;;;;;;;7.31;92.83;102067.56;1748813;82;20997;-81
2021/12/16 09:37:55;;;;;;;10.82;7.58;;;;;;;7.29;93.03;102068.45;1755220;81;21087;-84
2021/12/16 09:40:26;;;;;;;13.33;8.00;;;;;;;7.28;92.96;102063.64;1780384;80;21035;-76
2021/12/16 09:42:54;;;;;;;14.77;8.37;;;;;;;7.29;92.92;102066.71;1749508;82;21126;-77
2021/12/16 09:45:22;;;;;;;10.07;7.63;;;;;;;7.28;92.97;102071.91;1748445;81;21024;-77
2021/12/16 09:47:49;;;;;;;11.60;8.20;;;;;;;7.29;93.06;102075.84;1754640;81;21055;-78
2021/12/16 09:50:21;;;;;;;12.97;7.80;;;;;;;7.29;93.17;102069.32;1750116;81;20989;-77
2021/12/16 09:52:48;;;;;;;14.13;8.80;;;;;;;7.31;93.18;102071.91;1727162;83;20980;-77
2021/12/16 09:55:15;;;;;;;12.90;8.73;;;;;;;7.31;93.16;102073.22;1731982;82;21205;-73
2021/12/16 09:57:43;;;;;;;11.37;8.13;;;;;;;7.30;93.03;102064.97;1733571;82;21075;-73
2021/12/16 10:00:14;;;;;;;14.40;9.13;;;;;;;7.29;93.19;102061.50;1703116;84;21012;-77
2021/12/16 10:02:41;;;;;;;13.07;9.50;;;;;;;7.30;93.20;102056.70;1733511;82;21024;-73
2021/12/16 10:05:11;;;;;;;12.77;9.27;;;;;;;7.32;93.29;102054.98;1702706;84;21470;-73
2021/12/16 10:07:38;;;;;;;13.08;8.70;;;;;;;7.33;93.35;102058.02;1733299;82;21133;-76
2021/12/16 10:10:13;;;;;;;14.93;10.07;;;;;;;7.34;93.32;102056.27;1702594;84;21008;-73
2021/12/16 10:12:43;;;;;;;15.30;10.23;;;;;;;7.35;93.35;102061.95;1733512;82;20869;-73
2021/12/16 10:18:12;;;;;;;;;;;;;;;7.35;93.28;102063.25;1736270;82;21031;-77
2021/12/16 10:20:50;;;;;;;16.80;10.40;;;;;;;7.38;93.52;102064.13;1731684;82;21134;-77
2021/12/16 10:23:31;;;;;;;15.67;10.27;;;;;;;7.38;93.55;102066.73;1731986;82;21596;-73
2021/12/16 10:26:03;;;;;;;14.23;9.33;;;;;;;7.41;93.53;102068.92;1729852;82;21039;-73
2021/12/16 10:28:35;;;;;;;16.27;10.53;;;;;;;7.40;93.43;102059.33;1732127;82;21441;-73
2021/12/16 10:31:07;;;;;;;16.40;11.50;;;;;;;7.38;93.31;102051.08;1731768;82;21000;-73
2021/12/16 10:33:42;;;;;;;14.97;10.43;;;;;;;7.40;93.62;102068.46;1732016;82;21157;-73
2021/12/16 10:36:27;;;;;;;18.27;12.63;;;;;;;7.43;93.60;102071.07;1731912;82;21015;-74
2021/12/16 10:39:21;;;;;;;20.43;11.77;;;;;;;7.44;93.65;102071.53;1704729;83;21012;-75
2021/12/16 10:41:59;;;;;;;14.47;10.03;;;;;;;7.47;93.74;102074.14;1733535;82;21473;-73
2021/12/16 10:44:33;;;;;;;17.53;11.80;;;;;;;7.52;93.68;102085.47;1740361;81;21261;-74
2021/12/16 10:47:12;;;;;;;14.60;10.10;;;;;;;7.53;93.66;102088.50;1736976;82;21117;-73
2021/12/16 10:49:45;;;;;;;16.65;12.05;;;;;;;7.50;93.54;102089.36;1736743;82;21035;-75
2021/12/16 10:52:19;;;;;;;16.60;10.47;;;;;;;7.46;93.65;102098.06;1721068;83;21033;-80
2021/12/16 10:54:50;;;;;;;17.93;10.80;;;;;;;7.46;93.45;102091.55;1725090;83;21026;-85
2021/12/16 10:57:19;;;;;;;;;;;;;;;7.46;93.43;102082.41;1722889;83;21198;-81
2021/12/16 10:59:57;;;;;;;16.93;10.43;;;;;;;7.45;93.44;102081.95;1741750;82;21126;-82
2021/12/16 11:02:32;;;;;;;16.83;10.90;;;;;;;7.43;93.49;102079.80;1736451;82;20909;-79
2021/12/16 11:05:04;;;;;;;18.20;11.07;;;;;;;7.46;93.61;102087.63;1736286;82;21561;-79
2021/12/16 11:07:38;;;;;;;14.47;9.93;;;;;;;7.45;93.51;102081.95;1756073;81;21493;-78
2021/12/16 11:10:19;;;;;;;17.00;9.43;;;;;;;7.45;93.56;102078.04;1766194;81;21070;-78
2021/12/16 11:13:02;;;;;;;12.13;9.10;;;;;;;7.45;93.64;102092.83;1755548;81;21114;-74
2021/12/16 11:15:46;;;;;;;16.60;9.80;;;;;;;7.46;93.65;102091.55;1737495;81;21593;-77
2021/12/16 11:18:21;;;;;;;13.80;8.83;;;;;;;7.45;93.45;102092.39;1757610;81;21035;-76
2021/12/16 11:20:58;;;;;;;16.67;9.50;;;;;;;7.44;93.50;102078.92;1755205;81;21497;-75
2021/12/16 11:23:30;;;;;;;14.53;9.10;;;;;;;7.44;93.53;102073.70;1759472;81;21059;-76
2021/12/16 11:26:08;;;;;;;13.63;9.57;;;;;;;7.45;93.60;102064.99;1729058;81;21112;-76
2021/12/16 11:28:40;;;;;;;15.67;10.40;;;;;;;7.47;93.60;102072.84;1747789;81;21107;-76
2021/12/16 11:31:25;;;;;;;12.20;9.27;;;;;;;7.49;93.65;102077.20;1752505;81;21107;-76
2021/12/16 11:33:58;;;;;;;15.40;10.07;;;;;;;7.50;93.64;102084.59;1748537;81;21059;-75
2021/12/16 11:36:40;;;;;;;13.13;9.13;;;;;;;7.53;93.73;102083.28;1779632;80;21027;-75
2021/12/16 11:39:20;;;;;;;12.67;9.27;;;;;;;7.54;93.62;102081.13;1780709;80;21124;-76
2021/12/16 11:41:57;;;;;;;14.03;9.80;;;;;;;7.52;93.58;102066.77;1753180;81;21007;-76
2021/12/16 11:44:33;;;;;;;15.07;9.90;;;;;;;7.51;93.61;102065.03;1780078;80;21008;-80
2021/12/16 11:47:13;;;;;;;15.03;10.20;;;;;;;7.50;93.71;102070.23;1750655;81;21513;-78
2021/12/16 11:49:48;;;;;;;14.65;9.25;;;;;;;7.46;93.68;102057.63;1782521;80;21489;-77
2021/12/16 11:52:28;;;;;;;11.97;8.73;;;;;;;7.49;93.55;102071.11;1785205;80;21109;-76
2021/12/16 11:55:09;;;;;;;12.03;9.03;;;;;;;7.47;93.35;102065.88;1785651;80;21557;-76
2021/12/16 11:57:49;;;;;;;16.37;10.20;;;;;;;7.47;93.50;102071.53;1785699;80;20976;-75
2021/12/16 12:00:27;;;;;;;13.75;8.98;;;;;;;7.49;93.73;102070.67;1763567;80;20996;-79
2021/12/16 12:03:00;;;;;;;12.37;8.70;;;;;;;7.51;93.78;102067.64;1758102;81;21492;-74
2021/12/16 12:05:47;;;;;;;13.07;8.57;;;;;;;7.53;93.72;102065.88;1758353;81;21101;-80
2021/12/16 12:08:31;;;;;;;12.27;8.17;;;;;;;7.54;93.69;102067.65;1785597;80;21052;-79
2021/12/16 12:11:16;;;;;;;11.80;7.60;;;;;;;7.55;93.63;102071.13;1754817;81;22162;-76
2021/12/16 12:13:48;;;;;;;9.90;7.90;;;;;;;7.53;93.53;102070.23;1727538;83;21548;-75
2021/12/16 12:16:23;;;;;;;10.43;8.27;;;;;;;7.52;93.64;102073.29;1754718;81;21057;-77
2021/12/16 12:19:17;;;;;;;10.43;7.70;;;;;;;7.53;93.66;102068.50;1750430;81;21135;-75
2021/12/16 12:21:58;;;;;;;10.37;7.73;;;;;;;7.53;93.75;102072.84;1754456;81;21060;-83
2021/12/16 12:24:34;;;;;;;12.10;7.80;;;;;;;7.54;93.78;102067.65;1754760;81;21027;-78
2021/12/16 12:27:09;;;;;;;9.67;6.90;;;;;;;7.54;93.77;102065.48;1754484;81;21008;-80
2021/12/16 12:29:43;;;;;;;13.97;7.80;;;;;;;7.54;93.65;102055.91;1754824;81;21513;-75
2021/12/16 12:32:16;;;;;;;12.03;8.13;;;;;;;7.53;93.58;102056.75;1754505;81;21801;-74
2021/12/16 12:35:00;;;;;;;10.50;6.90;;;;;;;7.52;93.69;102055.02;1754640;81;21019;-75
2021/12/16 12:37:31;;;;;;;11.13;6.97;;;;;;;7.53;93.71;102055.89;1754501;81;21536;-77
2021/12/16 12:40:06;;;;;;;18.50;11.80;;;;;;;7.53;93.82;102052.84;1754742;81;21454;-73
2021/12/16 12:42:34;;;;;;;16.13;8.83;;;;;;;7.53;93.81;102056.75;1748795;81;21004;-75
2021/12/16 12:45:05;;;;;;;10.43;7.63;;;;;;;7.55;93.89;102065.47;1754928;81;21187;-77
2021/12/16 12:47:35;;;;;;;11.40;7.40;;;;;;;7.55;93.75;102073.73;1757364;81;21513;-84
2021/12/16 12:50:22;;;;;;;10.95;7.78;;;;;;;7.54;93.82;102079.39;1757223;81;20977;-74
2021/12/16 12:52:53;;;;;;;15.00;7.53;;;;;;;7.55;93.74;102079.81;1756122;80;20901;-83
2021/12/16 12:55:31;;;;;;;10.25;6.80;;;;;;;7.53;93.78;102085.89;1756761;81;21020;-76
2021/12/16 12:58:15;;;;;;;10.70;7.13;;;;;;;7.53;93.82;102080.67;1756903;81;21986;-72
2021/12/16 13:00:50;;;;;;;11.30;7.80;;;;;;;7.52;93.85;102078.50;1756674;81;21048;-82
2021/12/16 13:03:31;;;;;;;10.27;6.33;;;;;;;7.53;93.75;102078.06;1756879;81;21016;-72
2021/12/16 13:06:03;;;;;;;10.50;7.43;;;;;;;7.50;93.75;102083.28;1756716;81;21498;-80
2021/12/16 13:08:41;;;;;;;10.20;6.30;;;;;;;7.50;93.82;102084.59;1756360;81;20993;-82
2021/12/16 13:11:16;;;;;;;12.27;7.53;;;;;;;7.49;93.85;102104.59;1756811;81;21120;-73
2021/12/16 13:17:03;;;;;;;9.33;5.80;;;;;;;7.53;94.05;102112.85;1755005;81;21020;-74
2021/12/16 13:28:36;;;;;;;8.90;5.20;;;;;;;7.57;94.14;102102.02;1755037;81;21513;-74
2021/12/16 13:30:58;;;;;;;7.60;5.33;;;;;;;7.55;94.06;102097.22;1779962;80;20989;-73
2021/12/16 13:33:26;;;;;;;7.60;5.27;;;;;;;7.56;94.08;102102.86;1753896;81;21019;-81
2021/12/16 13:36:06;;;;;;;15.30;11.40;;;;;;;7.57;94.04;102104.63;1782590;80;21014;-74
2021/12/16 13:38:44;;;;;;;10.53;7.80;;;;;;;7.57;94.04;102109.84;1750022;82;21285;-77
2021/12/16 13:41:23;;;;;;;7.80;5.90;;;;;;;7.57;93.91;102106.79;1752942;81;21192;-74
2021/12/16 13:44:10;;;;;;;11.07;7.50;;;;;;;7.57;93.94;102101.58;1747393;81;21043;-73
2021/12/16 13:47:04;;;;;;;13.87;8.90;;;;;;;7.58;93.79;102106.35;1746486;81;21035;-74
2021/12/16 14:04:07;;;;;;;12.67;6.60;;;;;;;7.62;93.76;102110.73;1745548;82;20500;-78
2021/12/16 14:06:51;;;;;;;14.00;7.00;;;;;;;7.60;93.66;102102.88;1742972;82;21125;-76
2021/12/16 14:09:18;;;;;;;19.57;8.83;;;;;;;7.61;93.51;102106.36;1742945;82;21462;-76
2021/12/16 14:17:52;;;;;;;9.50;5.65;;;;;;;7.52;93.57;102116.34;1782694;80;21024;-78
2021/12/16 14:23:25;;;;;;;7.07;5.10;;;;;;;7.51;93.23;102126.76;1782516;80;21024;-81
2021/12/16 14:26:18;;;;;;;7.03;5.00;;;;;;;7.51;93.26;102143.31;1781746;80;21266;-81
2021/12/16 14:31:22;;;;;;;7.03;5.00;;;;;;;7.46;93.08;102142.42;1781999;80;21020;-82
2021/12/16 14:42:35;;;;;;;9.03;4.87;;;;;;;7.36;92.94;102173.23;1751469;81;21019;-75
2021/12/16 14:48:07;;;;;;;7.07;3.83;;;;;;;7.32;92.78;102182.80;1751590;82;21759;-75
2021/12/16 14:50:41;;;;;;;8.67;5.40;;;;;;;7.28;92.50;102180.16;1750365;81;21008;-75
2021/12/16 14:53:26;;;;;;;12.43;5.90;;;;;;;7.26;92.45;102180.56;1751569;81;21011;-77
2021/12/16 14:56:13;;;;;;;7.40;5.10;;;;;;;7.19;92.48;102174.90;1751559;82;21074;-77
2021/12/16 14:58:46;;;;;;;8.27;5.70;;;;;;;7.12;92.42;102179.19;1766369;80;21011;-79
2021/12/16 15:01:28;;;;;;;6.60;4.67;;;;;;;7.03;92.42;102172.63;1750364;81;21164;-76
2021/12/16 15:03:57;;;;;;;8.00;5.07;;;;;;;6.99;92.21;102175.66;1751749;81;20947;-79
2021/12/16 15:06:39;;;;;;;9.23;5.20;;;;;;;6.92;91.97;102174.72;1746228;82;21442;-76